createdAt,value
2022-08-18T00:00:01.028Z,56.80
2022-08-18T00:02:30.706Z,56.80
2022-08-18T00:04:58.406Z,57.10
2022-08-18T00:07:28.749Z,57.00
2022-08-18T00:09:56.208Z,57.20
2022-08-18T00:12:27.858Z,57.40
2022-08-18T00:14:55.921Z,57.60
2022-08-18T00:17:23.888Z,57.70
2022-08-18T00:19:51.389Z,58.00
2022-08-18T00:22:21.046Z,57.50
2022-08-18T00:24:51.590Z,57.80
2022-08-18T00:27:22.840Z,57.90
2022-08-18T00:29:52.964Z,57.90
2022-08-18T00:32:26.780Z,58.20
2022-08-18T00:34:54.553Z,58.10
2022-08-18T00:37:23.005Z,57.90
2022-08-18T00:39:54.063Z,58.00
2022-08-18T00:42:28.143Z,58.20
2022-08-18T00:45:01.600Z,58.20
2022-08-18T00:47:42.099Z,58.30
2022-08-18T00:50:24.097Z,58.30
2022-08-18T00:53:00.676Z,58.30
2022-08-18T00:55:30.230Z,58.20
2022-08-18T00:58:04.341Z,58.30
2022-08-18T01:00:32.281Z,58.50
2022-08-18T01:03:04.151Z,58.40
2022-08-18T01:06:00.560Z,58.50
2022-08-18T01:08:29.402Z,58.60
2022-08-18T01:10:57.875Z,58.60
2022-08-18T01:13:30.817Z,58.60
2022-08-18T01:15:57.997Z,58.80
2022-08-18T01:18:44.040Z,58.90
2022-08-18T01:21:39.397Z,59.00
2022-08-18T01:24:10.234Z,59.10
2022-08-18T01:26:44.116Z,59.30
2022-08-18T01:29:18.732Z,59.20
2022-08-18T01:31:55.431Z,59.40
2022-08-18T01:34:26.174Z,59.50
2022-08-18T01:36:55.254Z,59.70
2022-08-18T01:40:59.788Z,59.40
2022-08-18T01:42:10.504Z,59.60
2022-08-18T01:44:37.674Z,59.50
2022-08-18T01:47:04.658Z,59.60
2022-08-18T01:49:31.687Z,59.60
2022-08-18T01:51:58.592Z,59.60
2022-08-18T01:54:30.011Z,59.60
2022-08-18T01:56:57.868Z,59.70
2022-08-18T01:59:24.901Z,59.80
2022-08-18T02:01:55.648Z,60.60
2022-08-18T02:04:36.906Z,59.80
2022-08-18T02:07:08.893Z,60.00
2022-08-18T02:09:37.951Z,60.00
2022-08-18T02:15:01.072Z,59.90
2022-08-18T02:17:28.125Z,60.10
2022-08-18T02:19:55.308Z,60.00
2022-08-18T02:22:22.396Z,60.10
2022-08-18T02:24:50.196Z,60.20
2022-08-18T02:27:18.757Z,60.50
2022-08-18T02:29:45.936Z,60.50
2022-08-18T02:32:13.169Z,60.80
2022-08-18T02:34:42.450Z,61.10
2022-08-18T02:37:14.830Z,61.20
2022-08-18T02:39:42.520Z,61.40
2022-08-18T02:42:09.725Z,61.70
2022-08-18T02:44:36.706Z,61.80
2022-08-18T02:47:03.836Z,62.00
2022-08-18T02:49:30.860Z,62.10
2022-08-18T02:51:57.790Z,62.20
2022-08-18T02:54:25.390Z,62.40
2022-08-18T02:56:52.991Z,62.50
2022-08-18T02:59:25.021Z,62.50
2022-08-18T03:01:54.259Z,62.70
2022-08-18T03:04:29.512Z,63.00
2022-08-18T03:06:59.304Z,63.40
2022-08-18T03:09:26.624Z,63.60
2022-08-18T03:11:53.613Z,63.50
2022-08-18T03:14:20.658Z,63.80
2022-08-18T03:16:54.522Z,64.00
2022-08-18T03:19:29.477Z,64.30
2022-08-18T03:21:59.409Z,64.10
2022-08-18T03:24:29.809Z,64.30
2022-08-18T03:26:57.258Z,65.20
2022-08-18T03:29:30.950Z,64.60
2022-08-18T03:31:59.655Z,64.50
2022-08-18T03:34:26.495Z,64.60
2022-08-18T03:36:53.677Z,64.50
2022-08-18T03:39:23.629Z,64.80
2022-08-18T03:41:58.734Z,64.80
2022-08-18T03:44:33.240Z,65.00
2022-08-18T03:47:02.758Z,65.10
2022-08-18T03:49:29.525Z,65.10
2022-08-18T03:52:00.994Z,65.10
2022-08-18T03:54:29.515Z,65.50
2022-08-18T03:56:56.472Z,65.50
2022-08-18T03:59:27.043Z,65.40
2022-08-18T04:01:55.332Z,65.40
2022-08-18T04:04:25.975Z,65.60
2022-08-18T04:07:04.419Z,65.40
2022-08-18T04:09:33.243Z,65.50
2022-08-18T04:12:15.525Z,65.50
2022-08-18T04:14:47.682Z,65.80
2022-08-18T04:17:14.802Z,66.00
2022-08-18T04:19:42.012Z,66.20
2022-08-18T04:22:09.000Z,66.20
2022-08-18T04:24:35.957Z,66.00
2022-08-18T04:27:05.007Z,66.00
2022-08-18T04:29:32.187Z,66.40
2022-08-18T04:32:04.082Z,66.30
2022-08-18T04:34:33.246Z,66.30
2022-08-18T04:37:02.238Z,66.30
2022-08-18T04:39:30.017Z,66.40
2022-08-18T04:41:56.958Z,66.50
2022-08-18T04:44:23.838Z,66.60
2022-08-18T04:46:53.117Z,66.50
2022-08-18T04:49:25.853Z,66.70
2022-08-18T04:52:34.401Z,67.00
2022-08-18T04:55:01.612Z,66.70
2022-08-18T04:57:29.196Z,66.90
2022-08-18T05:00:00.936Z,67.10
2022-08-18T05:02:28.233Z,67.10
2022-08-18T05:04:55.215Z,66.90
2022-08-18T05:07:25.563Z,66.90
2022-08-18T05:09:54.138Z,66.80
2022-08-18T05:12:22.852Z,67.20
2022-08-18T05:14:53.853Z,67.30
2022-08-18T05:17:20.774Z,67.20
2022-08-18T05:19:48.497Z,67.40
2022-08-18T05:22:22.751Z,67.30
2022-08-18T05:24:55.886Z,67.30
2022-08-18T05:27:22.750Z,67.50
2022-08-18T05:29:51.566Z,67.50
2022-08-18T05:32:38.351Z,67.70
2022-08-18T05:35:12.232Z,67.40
2022-08-18T05:37:45.108Z,67.70
2022-08-18T05:40:15.465Z,67.80
2022-08-18T05:42:43.526Z,67.80
2022-08-18T05:45:17.514Z,68.00
2022-08-18T05:47:44.844Z,68.30
2022-08-18T05:50:17.306Z,68.30
2022-08-18T05:52:58.946Z,68.20
2022-08-18T05:55:50.053Z,68.20
2022-08-18T05:58:33.197Z,68.40
2022-08-18T06:01:21.255Z,67.90
2022-08-18T06:04:04.903Z,69.00
2022-08-18T06:06:33.964Z,68.80
2022-08-18T06:09:28.474Z,69.20
2022-08-18T06:12:05.966Z,70.20
2022-08-18T06:14:32.997Z,69.40
2022-08-18T06:17:24.800Z,69.30
2022-08-18T06:20:22.502Z,69.20
2022-08-18T06:23:19.850Z,69.20
2022-08-18T06:26:02.201Z,69.70
2022-08-18T06:28:52.520Z,69.50
2022-08-18T06:31:31.190Z,69.60
2022-08-18T06:34:24.662Z,69.30
2022-08-18T06:37:04.579Z,69.40
2022-08-18T06:39:48.105Z,69.70
2022-08-18T06:42:26.692Z,69.30
2022-08-18T06:45:12.581Z,68.60
2022-08-18T06:47:45.472Z,69.10
2022-08-18T06:50:26.307Z,69.00
2022-08-18T06:52:59.192Z,68.80
2022-08-18T06:55:41.200Z,68.60
2022-08-18T06:58:20.178Z,67.50
2022-08-18T07:00:50.268Z,66.80
2022-08-18T07:03:20.832Z,66.60
2022-08-18T07:06:06.082Z,66.90
2022-08-18T07:08:38.281Z,66.10
2022-08-18T07:11:28.451Z,65.70
2022-08-18T07:14:14.814Z,66.50
2022-08-18T07:16:59.335Z,66.40
2022-08-18T07:19:30.306Z,65.80
2022-08-18T07:22:19.041Z,65.80
2022-08-18T07:24:49.298Z,65.30
2022-08-18T07:27:22.783Z,65.00
2022-08-18T07:30:05.925Z,64.90
2022-08-18T07:32:44.527Z,65.10
2022-08-18T07:35:17.521Z,65.40
2022-08-18T07:37:57.961Z,65.20
2022-08-18T07:40:27.789Z,64.50
2022-08-18T07:43:01.975Z,64.80
2022-08-18T07:45:45.267Z,64.70
2022-08-18T07:48:38.762Z,64.60
2022-08-18T07:51:24.195Z,64.50
2022-08-18T07:54:25.345Z,64.20
2022-08-18T07:57:06.184Z,63.60
2022-08-18T07:59:54.530Z,63.40
2022-08-18T08:02:39.572Z,63.60
2022-08-18T08:05:38.939Z,63.20
2022-08-18T08:08:14.230Z,62.90
2022-08-18T08:10:56.444Z,62.50
2022-08-18T08:14:01.630Z,62.30
2022-08-18T08:16:31.479Z,62.40
2022-08-18T08:19:01.494Z,62.50
2022-08-18T08:21:34.729Z,62.10
2022-08-18T08:24:18.705Z,61.80
2022-08-18T08:27:05.494Z,61.30
2022-08-18T08:30:07.394Z,60.20
2022-08-18T08:32:37.426Z,59.90
2022-08-18T08:35:49.993Z,59.70
2022-08-18T08:38:42.404Z,59.80
2022-08-18T08:41:26.714Z,59.90
2022-08-18T08:44:19.692Z,59.90
2022-08-18T08:46:58.733Z,59.40
2022-08-18T08:49:45.064Z,59.40
2022-08-18T08:52:24.909Z,59.30
2022-08-18T08:55:04.447Z,59.50
2022-08-18T08:57:38.216Z,59.30
2022-08-18T09:00:08.944Z,59.10
2022-08-18T09:02:48.244Z,58.70
2022-08-18T09:05:21.471Z,58.30
2022-08-18T09:07:48.359Z,58.00
2022-08-18T09:10:43.016Z,58.10
2022-08-18T09:13:48.108Z,58.20
2022-08-18T09:16:21.492Z,57.60
2022-08-18T09:19:04.154Z,57.00
2022-08-18T09:21:58.906Z,56.50
2022-08-18T09:24:30.848Z,56.40
2022-08-18T09:27:03.922Z,56.70
2022-08-18T09:29:54.891Z,56.90
2022-08-18T09:32:22.794Z,56.80
2022-08-18T09:35:18.024Z,56.60
2022-08-18T09:38:12.906Z,56.10
2022-08-18T09:41:11.655Z,55.50
2022-08-18T09:47:01.476Z,53.00
2022-08-18T09:49:29.204Z,52.70
2022-08-18T09:50:38.142Z,54.50
2022-08-18T09:51:59.266Z,52.10
2022-08-18T09:54:34.085Z,51.00
2022-08-18T09:57:04.051Z,49.50
2022-08-18T09:59:38.019Z,49.70
2022-08-18T10:02:33.482Z,49.50
2022-08-18T10:05:16.828Z,48.10
2022-08-18T10:07:50.036Z,47.10
2022-08-18T10:11:01.173Z,46.10
2022-08-18T10:13:50.903Z,43.20
2022-08-18T10:17:15.775Z,40.90
2022-08-18T10:19:52.300Z,39.90
2022-08-18T10:22:47.567Z,40.60
2022-08-18T10:25:30.137Z,39.20
2022-08-18T10:27:57.339Z,38.70
2022-08-18T10:30:56.264Z,38.70
2022-08-18T10:34:01.456Z,37.50
2022-08-18T10:36:37.519Z,37.20
2022-08-18T10:39:11.748Z,38.20
2022-08-18T10:41:54.319Z,38.60
2022-08-18T10:44:29.365Z,38.30
2022-08-18T10:46:58.528Z,39.60
2022-08-18T10:49:28.871Z,39.00
2022-08-18T10:52:18.903Z,38.40
2022-08-18T10:55:16.286Z,38.10
2022-08-18T10:58:07.841Z,38.50
2022-08-18T11:00:45.348Z,38.30
2022-08-18T11:04:00.011Z,37.90
2022-08-18T11:06:48.976Z,37.90
2022-08-18T11:09:28.214Z,37.70
2022-08-18T11:12:01.419Z,38.90
2022-08-18T11:18:42.860Z,38.20
2022-08-18T11:21:42.659Z,38.20
2022-08-18T11:24:24.971Z,38.50
2022-08-18T11:27:04.116Z,38.40
2022-08-18T11:29:42.028Z,38.00
2022-08-18T11:32:12.248Z,37.60
2022-08-18T11:34:52.753Z,37.30
2022-08-18T11:37:49.002Z,37.40
2022-08-18T11:40:51.921Z,37.70
2022-08-18T11:43:41.841Z,37.10
2022-08-18T11:49:26.013Z,37.10
2022-08-18T11:51:55.725Z,37.00
2022-08-18T11:54:24.750Z,37.00
2022-08-18T11:56:52.058Z,37.30
2022-08-18T11:59:52.581Z,37.70
2022-08-18T12:02:18.260Z,37.50
2022-08-18T12:04:51.373Z,37.50
2022-08-18T12:07:28.917Z,37.50
2022-08-18T12:10:26.217Z,38.00
2022-08-18T12:12:59.806Z,38.30
2022-08-18T12:15:46.748Z,38.60
2022-08-18T12:18:26.484Z,39.00
2022-08-18T12:20:58.336Z,39.20
2022-08-18T12:23:25.526Z,39.80
2022-08-18T12:25:52.610Z,40.30
2022-08-18T12:28:22.397Z,40.60
2022-08-18T12:30:56.991Z,40.90
2022-08-18T12:33:25.398Z,40.10
2022-08-18T12:36:02.463Z,39.40
2022-08-18T12:38:33.263Z,39.70
2022-08-18T12:41:05.364Z,40.70
2022-08-18T12:43:32.611Z,44.40
2022-08-18T12:46:02.469Z,45.70
2022-08-18T12:48:31.682Z,46.40
2022-08-18T12:50:59.850Z,47.70
2022-08-18T12:53:29.483Z,50.20
2022-08-18T12:56:08.603Z,53.50
2022-08-18T12:58:39.104Z,54.90
2022-08-18T13:01:07.677Z,56.50
2022-08-18T13:03:35.253Z,56.40
2022-08-18T13:06:04.769Z,56.80
2022-08-18T13:08:33.649Z,57.70
2022-08-18T13:11:14.794Z,58.30
2022-08-18T13:13:53.121Z,60.00
2022-08-18T13:16:30.755Z,61.70
2022-08-18T13:19:10.946Z,62.50
2022-08-18T13:21:41.084Z,64.30
2022-08-18T13:24:09.812Z,65.30
2022-08-18T13:26:43.336Z,67.00
2022-08-18T13:29:17.682Z,68.40
2022-08-18T13:31:55.814Z,67.60
2022-08-18T13:34:27.652Z,70.60
2022-08-18T13:36:57.491Z,71.30
2022-08-18T13:39:24.882Z,72.00
2022-08-18T13:42:01.470Z,71.70
2022-08-18T13:44:52.880Z,72.00
2022-08-18T13:47:21.481Z,71.10
2022-08-18T13:49:58.015Z,71.70
2022-08-18T13:52:35.620Z,71.80
2022-08-18T13:55:11.865Z,71.70
2022-08-18T13:57:41.995Z,72.30
2022-08-18T14:00:18.450Z,70.00
2022-08-18T14:02:53.744Z,70.10
2022-08-18T14:05:21.797Z,69.80
2022-08-18T14:08:05.163Z,69.60
2022-08-18T14:10:32.877Z,68.80
2022-08-18T14:13:01.782Z,67.60
2022-08-18T14:15:53.014Z,66.80
2022-08-18T14:18:21.310Z,66.70
2022-08-18T14:21:07.027Z,65.10
2022-08-18T14:24:05.617Z,64.20
2022-08-18T14:26:50.506Z,63.50
2022-08-18T14:29:45.583Z,62.70
2022-08-18T14:32:07.209Z,60.00
2022-08-18T14:34:34.571Z,60.50
2022-08-18T14:37:05.918Z,60.20
2022-08-18T14:39:37.399Z,58.70
2022-08-18T14:42:05.289Z,57.50
2022-08-18T14:44:33.535Z,57.30
2022-08-18T14:47:02.104Z,56.90
2022-08-18T14:49:31.130Z,55.90
2022-08-18T14:52:02.271Z,55.50
2022-08-18T14:54:33.464Z,54.90
2022-08-18T14:57:05.531Z,54.90
2022-08-18T14:59:34.425Z,54.20
2022-08-18T15:02:06.440Z,53.50
2022-08-18T15:04:53.203Z,52.70
2022-08-18T15:07:24.130Z,52.10
2022-08-18T15:09:51.124Z,52.30
2022-08-18T15:12:38.771Z,52.70
2022-08-18T15:15:09.112Z,53.00
2022-08-18T15:17:38.560Z,52.90
2022-08-18T15:20:07.963Z,52.30
2022-08-18T15:23:05.084Z,51.90
2022-08-18T15:25:50.983Z,51.00
2022-08-18T15:28:23.741Z,51.50
2022-08-18T15:31:16.525Z,51.50
2022-08-18T15:33:39.705Z,50.90
2022-08-18T15:36:09.989Z,51.20
2022-08-18T15:38:38.342Z,51.30
2022-08-18T15:41:06.003Z,51.20
2022-08-18T15:43:45.833Z,50.70
2022-08-18T15:46:16.900Z,51.10
2022-08-18T15:48:43.978Z,51.30
2022-08-18T15:51:12.146Z,50.80
2022-08-18T15:53:44.581Z,50.40
2022-08-18T15:56:31.722Z,50.00
2022-08-18T15:59:07.196Z,49.90
2022-08-18T16:01:41.883Z,49.50
2022-08-18T16:06:45.098Z,50.40
2022-08-18T16:09:12.639Z,50.40
2022-08-18T16:11:41.123Z,50.50
2022-08-18T16:14:09.085Z,50.50
2022-08-18T16:16:36.657Z,50.80
2022-08-18T16:19:06.530Z,51.00
2022-08-18T16:21:33.542Z,51.10
2022-08-18T16:24:00.477Z,51.00
2022-08-18T16:26:27.365Z,50.70
2022-08-18T16:28:54.281Z,50.70
2022-08-18T16:31:26.804Z,51.10
2022-08-18T16:33:54.909Z,51.50
2022-08-18T16:36:25.408Z,51.80
2022-08-18T16:38:53.698Z,51.60
2022-08-18T16:41:21.823Z,51.70
2022-08-18T16:43:49.231Z,51.90
2022-08-18T16:46:26.309Z,52.30
2022-08-18T16:48:55.139Z,52.20
2022-08-18T16:51:25.428Z,52.60
2022-08-18T16:53:53.465Z,52.70
2022-08-18T16:56:23.974Z,52.80
2022-08-18T16:59:09.310Z,52.80
2022-08-18T17:01:55.604Z,52.90
2022-08-18T17:04:33.607Z,53.00
2022-08-18T17:07:02.580Z,53.30
2022-08-18T17:09:32.544Z,53.70
2022-08-18T17:12:00.267Z,54.10
2022-08-18T17:14:30.030Z,54.40
2022-08-18T17:16:58.590Z,54.10
2022-08-18T17:19:29.894Z,54.30
2022-08-18T17:21:57.152Z,54.60
2022-08-18T17:24:31.106Z,55.20
2022-08-18T17:27:37.428Z,55.30
2022-08-18T17:30:45.171Z,55.00
2022-08-18T17:40:38.161Z,56.10
2022-08-18T17:43:55.038Z,56.30
2022-08-18T17:47:23.011Z,56.60
2022-08-18T17:50:27.101Z,57.70
2022-08-18T17:53:42.991Z,58.50
2022-08-18T17:56:36.205Z,58.20
2022-08-18T18:03:12.797Z,59.00
2022-08-18T18:06:23.194Z,58.90
2022-08-18T18:09:06.346Z,59.30
2022-08-18T18:11:37.643Z,59.50
2022-08-18T18:14:24.198Z,60.00
2022-08-18T18:17:07.092Z,60.60
2022-08-18T18:19:34.952Z,60.50
2022-08-18T18:22:17.223Z,60.60
2022-08-18T18:24:52.493Z,60.70
2022-08-18T18:27:29.331Z,60.90
2022-08-18T18:30:28.005Z,61.20
2022-08-18T18:32:59.299Z,61.60
2022-08-18T18:35:53.322Z,61.70
2022-08-18T18:38:37.919Z,61.90
2022-08-18T18:41:20.870Z,62.10
2022-08-18T18:43:51.150Z,62.10
2022-08-18T18:46:23.201Z,62.30
2022-08-18T18:49:16.151Z,62.60
2022-08-18T18:51:55.332Z,62.70
2022-08-18T18:54:53.484Z,63.00
2022-08-18T18:57:43.703Z,63.50
2022-08-18T19:00:36.560Z,64.10
2022-08-18T19:03:21.801Z,64.10
2022-08-18T19:06:18.540Z,64.60
2022-08-18T19:08:54.431Z,65.00
2022-08-18T19:11:31.820Z,65.20
2022-08-18T19:14:07.548Z,65.70
2022-08-18T19:16:45.196Z,66.20
2022-08-18T19:19:35.348Z,66.20
2022-08-18T19:22:18.579Z,66.30
2022-08-18T19:24:54.030Z,66.50
2022-08-18T19:27:28.974Z,66.50
2022-08-18T19:30:00.316Z,66.80
2022-08-18T19:32:35.054Z,67.00
2022-08-18T19:35:04.376Z,67.20
2022-08-18T19:37:46.320Z,67.30
2022-08-18T19:40:21.303Z,67.30
2022-08-18T19:43:12.129Z,67.70
2022-08-18T19:46:24.375Z,67.80
2022-08-18T19:49:04.407Z,67.90
2022-08-18T19:51:37.849Z,68.30
2022-08-18T19:54:26.356Z,68.10
2022-08-18T19:57:23.219Z,68.30
2022-08-18T20:00:11.908Z,68.70
2022-08-18T20:03:18.586Z,68.80
2022-08-18T20:06:14.218Z,68.80
2022-08-18T20:09:09.097Z,69.00
2022-08-18T20:11:45.251Z,69.20
2022-08-18T20:14:14.979Z,69.40
2022-08-18T20:17:04.089Z,69.40
2022-08-18T20:19:39.878Z,69.40
2022-08-18T20:22:16.067Z,69.50
2022-08-18T20:25:11.801Z,69.50
2022-08-18T20:27:40.114Z,69.50
2022-08-18T20:31:04.789Z,69.30
2022-08-18T20:33:43.326Z,69.10
2022-08-18T20:36:30.542Z,69.30
2022-08-18T20:38:59.984Z,69.50
2022-08-18T20:41:32.658Z,69.60
2022-08-18T20:44:29.228Z,69.70
2022-08-18T20:47:33.802Z,70.40
2022-08-18T20:50:00.800Z,69.90
2022-08-18T20:52:41.577Z,70.20
2022-08-18T20:55:38.365Z,70.10
2022-08-18T20:58:18.372Z,70.20
2022-08-18T21:00:55.093Z,70.50
2022-08-18T21:03:23.907Z,70.40
2022-08-18T21:05:58.123Z,70.40
2022-08-18T21:08:28.934Z,70.50
2022-08-18T21:11:36.067Z,70.20
2022-08-18T21:14:04.060Z,70.40
2022-08-18T21:16:40.142Z,70.50
2022-08-18T21:19:20.143Z,70.70
2022-08-18T21:21:59.509Z,70.90
2022-08-18T21:24:42.543Z,71.30
2022-08-18T21:27:26.183Z,70.80
2022-08-18T21:29:56.740Z,70.90
2022-08-18T21:32:31.510Z,71.20
2022-08-18T21:35:08.021Z,71.20
2022-08-18T21:37:41.432Z,71.10
2022-08-18T21:40:08.843Z,71.10
2022-08-18T21:42:40.464Z,71.30
2022-08-18T21:45:17.616Z,71.00
2022-08-18T21:47:57.832Z,70.90
2022-08-18T21:50:27.972Z,71.10
2022-08-18T21:53:01.701Z,71.40
2022-08-18T21:55:49.607Z,71.50
2022-08-18T21:58:33.953Z,71.20
2022-08-18T22:01:13.867Z,71.40
2022-08-18T22:03:52.330Z,72.70
2022-08-18T22:06:34.549Z,71.00
2022-08-18T22:09:23.195Z,71.10
2022-08-18T22:12:37.773Z,71.10
2022-08-18T22:15:16.631Z,71.20
2022-08-18T22:17:49.664Z,71.60
2022-08-18T22:20:50.134Z,71.90
2022-08-18T22:23:54.724Z,72.10
2022-08-18T22:26:26.203Z,72.30
2022-08-18T22:28:57.048Z,72.40
2022-08-18T22:31:26.363Z,72.50
2022-08-18T22:33:54.428Z,72.80
2022-08-18T22:36:29.128Z,72.60
2022-08-18T22:38:56.349Z,72.70
2022-08-18T22:41:23.773Z,73.00
2022-08-18T22:43:54.984Z,72.80
2022-08-18T22:46:24.838Z,72.80
2022-08-18T22:48:52.850Z,72.90
2022-08-18T22:51:23.266Z,72.70
2022-08-18T22:53:50.697Z,73.30
2022-08-18T22:56:22.739Z,73.80
2022-08-18T22:59:13.804Z,73.50
2022-08-18T23:01:46.296Z,73.20
2022-08-18T23:04:14.788Z,73.10
2022-08-18T23:06:41.889Z,73.40
2022-08-18T23:09:15.137Z,74.00
2022-08-18T23:11:45.518Z,73.90
2022-08-18T23:14:12.937Z,73.90
2022-08-18T23:16:45.200Z,74.20
2022-08-18T23:19:16.917Z,74.60
2022-08-18T23:21:44.638Z,74.60
2022-08-18T23:24:14.260Z,74.40
2022-08-18T23:26:41.626Z,74.50
2022-08-18T23:29:11.681Z,74.70
2022-08-18T23:31:41.603Z,74.90
2022-08-18T23:34:09.766Z,74.90
2022-08-18T23:36:41.251Z,74.90
2022-08-18T23:39:11.160Z,74.90
2022-08-18T23:41:39.060Z,75.20
2022-08-18T23:44:06.757Z,75.20
2022-08-18T23:46:34.303Z,75.20
2022-08-18T23:49:04.019Z,75.00
2022-08-18T23:51:41.715Z,74.50
2022-08-18T23:54:14.473Z,74.90
2022-08-18T23:56:41.534Z,74.90
2022-08-18T23:59:08.912Z,75.30
